sensor_id;sensor_type;location;lat;lon;timestamp;temperature;humidity
25302;DHT22;13243;50.888;4.724;2023-02-28T00:00:37;1.00;99.90
25302;DHT22;13243;50.888;4.724;2023-02-28T00:05:40;1.00;99.90
25302;DHT22;13243;50.888;4.724;2023-02-28T00:10:42;1.00;99.90
25302;DHT22;13243;50.888;4.724;2023-02-28T00:15:44;0.90;99.90
25302;DHT22;13243;50.888;4.724;2023-02-28T00:20:47;1.00;99.90
25302;DHT22;13243;50.888;4.724;2023-02-28T00:25:49;0.80;99.90
25302;DHT22;13243;50.888;4.724;2023-02-28T00:30:51;0.80;99.90
25302;DHT22;13243;50.888;4.724;2023-02-28T00:36:02;0.90;99.90
25302;DHT22;13243;50.888;4.724;2023-02-28T00:41:05;0.90;99.90
25302;DHT22;13243;50.888;4.724;2023-02-28T00:46:08;0.60;99.90
25302;DHT22;13243;50.888;4.724;2023-02-28T00:51:09;0.70;99.90
25302;DHT22;13243;50.888;4.724;2023-02-28T00:56:11;0.60;99.90
25302;DHT22;13243;50.888;4.724;2023-02-28T01:01:13;0.50;99.90
25302;DHT22;13243;50.888;4.724;2023-02-28T01:06:15;0.60;99.90
25302;DHT22;13243;50.888;4.724;2023-02-28T01:11:17;0.40;99.90
25302;DHT22;13243;50.888;4.724;2023-02-28T01:16:19;0.50;99.90
25302;DHT22;13243;50.888;4.724;2023-02-28T01:21:21;0.40;99.90
25302;DHT22;13243;50.888;4.724;2023-02-28T01:26:24;0.20;99.90
25302;DHT22;13243;50.888;4.724;2023-02-28T01:31:26;0.30;99.90
25302;DHT22;13243;50.888;4.724;2023-02-28T01:36:29;0.40;99.90
25302;DHT22;13243;50.888;4.724;2023-02-28T01:41:33;0.30;99.90
25302;DHT22;13243;50.888;4.724;2023-02-28T01:46:36;0.20;99.90
25302;DHT22;13243;50.888;4.724;2023-02-28T01:51:43;0.30;99.90
25302;DHT22;13243;50.888;4.724;2023-02-28T01:57:00;0.20;99.90
25302;DHT22;13243;50.888;4.724;2023-02-28T02:02:03;0.00;99.90
25302;DHT22;13243;50.888;4.724;2023-02-28T02:07:05;0.00;99.90
25302;DHT22;13243;50.888;4.724;2023-02-28T02:17:34;-0.10;99.90
25302;DHT22;13243;50.888;4.724;2023-02-28T02:23:15;-0.20;99.90
25302;DHT22;13243;50.888;4.724;2023-02-28T02:28:49;0.00;99.90
25302;DHT22;13243;50.888;4.724;2023-02-28T02:34:09;-0.10;99.90
25302;DHT22;13243;50.888;4.724;2023-02-28T02:39:52;-0.20;99.90
25302;DHT22;13243;50.888;4.724;2023-02-28T02:44:50;-0.30;99.90
25302;DHT22;13243;50.888;4.724;2023-02-28T02:49:57;-0.50;99.90
25302;DHT22;13243;50.888;4.724;2023-02-28T02:55:02;-0.50;99.90
25302;DHT22;13243;50.888;4.724;2023-02-28T03:00:06;-0.50;99.90
25302;DHT22;13243;50.888;4.724;2023-02-28T03:05:41;-0.50;99.90
25302;DHT22;13243;50.888;4.724;2023-02-28T03:10:49;-0.50;99.90
25302;DHT22;13243;50.888;4.724;2023-02-28T03:27:18;-0.30;99.90
25302;DHT22;13243;50.888;4.724;2023-02-28T03:32:50;-0.60;99.90
25302;DHT22;13243;50.888;4.724;2023-02-28T03:38:00;-0.50;99.90
25302;DHT22;13243;50.888;4.724;2023-02-28T03:43:09;-0.60;99.90
25302;DHT22;13243;50.888;4.724;2023-02-28T03:48:38;-0.60;99.90
25302;DHT22;13243;50.888;4.724;2023-02-28T03:54:21;-0.80;99.90
25302;DHT22;13243;50.888;4.724;2023-02-28T04:04:19;-0.90;99.90
25302;DHT22;13243;50.888;4.724;2023-02-28T04:09:21;-0.70;99.90
25302;DHT22;13243;50.888;4.724;2023-02-28T04:14:23;-0.70;99.90
25302;DHT22;13243;50.888;4.724;2023-02-28T04:19:25;-0.80;99.90
25302;DHT22;13243;50.888;4.724;2023-02-28T04:24:27;-0.50;99.90
25302;DHT22;13243;50.888;4.724;2023-02-28T04:29:32;-0.50;99.90
25302;DHT22;13243;50.888;4.724;2023-02-28T04:34:34;-0.50;99.90
25302;DHT22;13243;50.888;4.724;2023-02-28T04:39:40;-0.60;99.90
25302;DHT22;13243;50.888;4.724;2023-02-28T04:44:42;-0.60;99.90
25302;DHT22;13243;50.888;4.724;2023-02-28T04:49:43;-0.40;99.90
25302;DHT22;13243;50.888;4.724;2023-02-28T04:54:45;-0.70;99.90
25302;DHT22;13243;50.888;4.724;2023-02-28T04:59:47;-0.60;99.90
25302;DHT22;13243;50.888;4.724;2023-02-28T05:04:49;-0.90;99.90
25302;DHT22;13243;50.888;4.724;2023-02-28T05:09:51;-0.70;99.90
25302;DHT22;13243;50.888;4.724;2023-02-28T05:14:54;-0.70;99.90
25302;DHT22;13243;50.888;4.724;2023-02-28T05:19:56;-0.90;99.90
25302;DHT22;13243;50.888;4.724;2023-02-28T05:25:17;-0.70;99.90
25302;DHT22;13243;50.888;4.724;2023-02-28T05:30:19;-0.60;99.90
25302;DHT22;13243;50.888;4.724;2023-02-28T05:35:21;-0.40;99.90
25302;DHT22;13243;50.888;4.724;2023-02-28T05:40:23;-0.30;99.90
25302;DHT22;13243;50.888;4.724;2023-02-28T05:45:25;-0.40;99.90
25302;DHT22;13243;50.888;4.724;2023-02-28T05:50:27;-0.40;99.90
25302;DHT22;13243;50.888;4.724;2023-02-28T05:55:29;-0.30;99.90
25302;DHT22;13243;50.888;4.724;2023-02-28T06:00:31;-0.50;99.90
25302;DHT22;13243;50.888;4.724;2023-02-28T06:05:33;-0.60;99.90
25302;DHT22;13243;50.888;4.724;2023-02-28T06:10:35;-0.40;99.90
25302;DHT22;13243;50.888;4.724;2023-02-28T06:15:37;-0.30;99.90
25302;DHT22;13243;50.888;4.724;2023-02-28T06:20:39;-0.50;99.90
25302;DHT22;13243;50.888;4.724;2023-02-28T06:25:45;-0.40;99.90
25302;DHT22;13243;50.888;4.724;2023-02-28T06:30:47;-0.40;99.90
25302;DHT22;13243;50.888;4.724;2023-02-28T06:35:52;-0.40;99.90
25302;DHT22;13243;50.888;4.724;2023-02-28T06:40:55;-0.70;99.90
25302;DHT22;13243;50.888;4.724;2023-02-28T06:45:59;-0.80;99.90
25302;DHT22;13243;50.888;4.724;2023-02-28T06:51:10;-0.50;99.90
25302;DHT22;13243;50.888;4.724;2023-02-28T06:56:16;-0.40;99.90
25302;DHT22;13243;50.888;4.724;2023-02-28T07:01:19;-0.40;99.90
25302;DHT22;13243;50.888;4.724;2023-02-28T07:06:21;-0.30;99.90
25302;DHT22;13243;50.888;4.724;2023-02-28T07:11:27;-0.30;99.90
25302;DHT22;13243;50.888;4.724;2023-02-28T07:16:30;-0.30;99.90
25302;DHT22;13243;50.888;4.724;2023-02-28T07:21:32;-0.20;99.90
25302;DHT22;13243;50.888;4.724;2023-02-28T07:26:34;-0.20;99.90
25302;DHT22;13243;50.888;4.724;2023-02-28T07:31:36;-0.10;99.90
25302;DHT22;13243;50.888;4.724;2023-02-28T07:36:38;0.00;99.90
25302;DHT22;13243;50.888;4.724;2023-02-28T07:41:40;0.20;99.90
25302;DHT22;13243;50.888;4.724;2023-02-28T07:46:45;0.40;99.90
25302;DHT22;13243;50.888;4.724;2023-02-28T07:51:47;0.40;99.90
25302;DHT22;13243;50.888;4.724;2023-02-28T07:56:49;0.60;99.90
25302;DHT22;13243;50.888;4.724;2023-02-28T08:01:50;0.80;99.90
25302;DHT22;13243;50.888;4.724;2023-02-28T08:06:53;1.00;99.90
25302;DHT22;13243;50.888;4.724;2023-02-28T08:11:54;1.20;99.90
25302;DHT22;13243;50.888;4.724;2023-02-28T08:16:56;1.40;99.90
25302;DHT22;13243;50.888;4.724;2023-02-28T08:21:59;1.60;99.90
25302;DHT22;13243;50.888;4.724;2023-02-28T08:27:00;1.50;99.90
25302;DHT22;13243;50.888;4.724;2023-02-28T08:32:04;1.70;99.90
25302;DHT22;13243;50.888;4.724;2023-02-28T08:37:06;1.80;99.90
25302;DHT22;13243;50.888;4.724;2023-02-28T08:42:08;2.00;99.90
25302;DHT22;13243;50.888;4.724;2023-02-28T08:47:10;2.10;99.90
25302;DHT22;13243;50.888;4.724;2023-02-28T08:52:12;2.30;99.90
25302;DHT22;13243;50.888;4.724;2023-02-28T08:57:14;2.30;99.90
25302;DHT22;13243;50.888;4.724;2023-02-28T09:02:15;2.50;99.90
25302;DHT22;13243;50.888;4.724;2023-02-28T09:07:17;2.60;99.90
25302;DHT22;13243;50.888;4.724;2023-02-28T09:12:27;2.60;99.90
25302;DHT22;13243;50.888;4.724;2023-02-28T09:17:29;2.80;99.90
25302;DHT22;13243;50.888;4.724;2023-02-28T09:22:31;3.00;99.90
25302;DHT22;13243;50.888;4.724;2023-02-28T09:27:34;3.30;99.90
25302;DHT22;13243;50.888;4.724;2023-02-28T09:32:35;3.30;99.90
25302;DHT22;13243;50.888;4.724;2023-02-28T09:37:37;3.50;99.90
25302;DHT22;13243;50.888;4.724;2023-02-28T09:42:39;3.50;99.90
25302;DHT22;13243;50.888;4.724;2023-02-28T09:47:45;3.60;99.90
25302;DHT22;13243;50.888;4.724;2023-02-28T09:52:49;3.80;99.90
25302;DHT22;13243;50.888;4.724;2023-02-28T09:57:52;3.80;99.90
25302;DHT22;13243;50.888;4.724;2023-02-28T10:08:19;4.30;99.90
25302;DHT22;13243;50.888;4.724;2023-02-28T10:18:46;4.60;99.90
25302;DHT22;13243;50.888;4.724;2023-02-28T10:23:49;4.30;99.90
25302;DHT22;13243;50.888;4.724;2023-02-28T10:28:54;4.60;99.90
25302;DHT22;13243;50.888;4.724;2023-02-28T10:33:56;4.50;99.90
25302;DHT22;13243;50.888;4.724;2023-02-28T10:38:58;4.50;99.90
25302;DHT22;13243;50.888;4.724;2023-02-28T10:44:34;4.70;99.90
25302;DHT22;13243;50.888;4.724;2023-02-28T10:49:35;4.90;99.90
25302;DHT22;13243;50.888;4.724;2023-02-28T10:54:41;5.00;99.90
25302;DHT22;13243;50.888;4.724;2023-02-28T10:59:43;5.00;99.90
25302;DHT22;13243;50.888;4.724;2023-02-28T11:04:45;5.20;99.90
25302;DHT22;13243;50.888;4.724;2023-02-28T11:09:54;5.50;99.90
25302;DHT22;13243;50.888;4.724;2023-02-28T11:15:28;5.20;99.90
25302;DHT22;13243;50.888;4.724;2023-02-28T11:20:31;5.40;99.90
25302;DHT22;13243;50.888;4.724;2023-02-28T11:25:38;5.90;99.90
25302;DHT22;13243;50.888;4.724;2023-02-28T11:30:41;5.90;99.90
25302;DHT22;13243;50.888;4.724;2023-02-28T11:35:44;6.00;99.90
25302;DHT22;13243;50.888;4.724;2023-02-28T11:41:09;5.90;99.90
25302;DHT22;13243;50.888;4.724;2023-02-28T12:13:34;6.40;99.90
25302;DHT22;13243;50.888;4.724;2023-02-28T12:29:30;6.00;99.90
25302;DHT22;13243;50.888;4.724;2023-02-28T12:34:38;6.70;99.90
25302;DHT22;13243;50.888;4.724;2023-02-28T12:39:45;7.20;99.90
25302;DHT22;13243;50.888;4.724;2023-02-28T12:50:07;7.20;99.90
25302;DHT22;13243;50.888;4.724;2023-02-28T13:11:53;7.50;99.90
25302;DHT22;13243;50.888;4.724;2023-02-28T13:17:03;7.80;99.90
25302;DHT22;13243;50.888;4.724;2023-02-28T13:22:39;7.60;99.90
25302;DHT22;13243;50.888;4.724;2023-02-28T13:27:41;7.80;99.90
25302;DHT22;13243;50.888;4.724;2023-02-28T13:32:44;7.60;99.90
25302;DHT22;13243;50.888;4.724;2023-02-28T13:37:47;7.70;99.90
25302;DHT22;13243;50.888;4.724;2023-02-28T13:42:51;8.20;99.90
25302;DHT22;13243;50.888;4.724;2023-02-28T13:48:01;8.40;99.90
25302;DHT22;13243;50.888;4.724;2023-02-28T13:58:53;8.60;99.90
25302;DHT22;13243;50.888;4.724;2023-02-28T14:09:24;9.10;99.90
25302;DHT22;13243;50.888;4.724;2023-02-28T14:19:37;9.60;99.90
25302;DHT22;13243;50.888;4.724;2023-02-28T14:24:49;9.30;99.90
25302;DHT22;13243;50.888;4.724;2023-02-28T14:36:01;9.80;99.90
25302;DHT22;13243;50.888;4.724;2023-02-28T14:41:12;9.90;99.90
25302;DHT22;13243;50.888;4.724;2023-02-28T14:46:17;10.10;99.90
25302;DHT22;13243;50.888;4.724;2023-02-28T14:51:21;10.20;99.90
25302;DHT22;13243;50.888;4.724;2023-02-28T14:56:34;9.90;99.90
25302;DHT22;13243;50.888;4.724;2023-02-28T15:01:37;11.00;99.90
25302;DHT22;13243;50.888;4.724;2023-02-28T15:06:38;11.20;99.90
25302;DHT22;13243;50.888;4.724;2023-02-28T15:11:41;11.10;99.90
25302;DHT22;13243;50.888;4.724;2023-02-28T15:16:45;11.20;99.90
25302;DHT22;13243;50.888;4.724;2023-02-28T15:21:59;11.60;99.90
25302;DHT22;13243;50.888;4.724;2023-02-28T15:27:05;11.50;99.90
25302;DHT22;13243;50.888;4.724;2023-02-28T15:32:24;11.10;99.90
25302;DHT22;13243;50.888;4.724;2023-02-28T15:37:38;10.70;99.90
25302;DHT22;13243;50.888;4.724;2023-02-28T15:42:40;11.60;99.90
25302;DHT22;13243;50.888;4.724;2023-02-28T15:47:45;11.40;99.90
25302;DHT22;13243;50.888;4.724;2023-02-28T15:52:47;11.70;99.90
25302;DHT22;13243;50.888;4.724;2023-02-28T15:57:51;12.00;99.90
25302;DHT22;13243;50.888;4.724;2023-02-28T16:02:54;11.80;99.90
25302;DHT22;13243;50.888;4.724;2023-02-28T16:07:58;11.70;99.90
25302;DHT22;13243;50.888;4.724;2023-02-28T16:13:02;11.70;99.90
25302;DHT22;13243;50.888;4.724;2023-02-28T16:18:04;12.00;99.90
25302;DHT22;13243;50.888;4.724;2023-02-28T16:23:06;11.50;99.90
25302;DHT22;13243;50.888;4.724;2023-02-28T16:28:21;11.60;99.90
25302;DHT22;13243;50.888;4.724;2023-02-28T16:33:25;11.20;99.90
25302;DHT22;13243;50.888;4.724;2023-02-28T16:38:27;11.10;99.90
25302;DHT22;13243;50.888;4.724;2023-02-28T16:43:29;10.60;99.90
25302;DHT22;13243;50.888;4.724;2023-02-28T16:48:31;10.30;99.90
25302;DHT22;13243;50.888;4.724;2023-02-28T16:53:33;9.20;99.90
25302;DHT22;13243;50.888;4.724;2023-02-28T16:58:35;8.50;99.90
25302;DHT22;13243;50.888;4.724;2023-02-28T17:03:38;8.00;99.90
25302;DHT22;13243;50.888;4.724;2023-02-28T17:08:41;7.70;99.90
25302;DHT22;13243;50.888;4.724;2023-02-28T17:13:44;7.30;99.90
25302;DHT22;13243;50.888;4.724;2023-02-28T17:18:46;7.20;99.90
25302;DHT22;13243;50.888;4.724;2023-02-28T17:23:48;7.00;99.90
25302;DHT22;13243;50.888;4.724;2023-02-28T17:28:53;6.80;99.90
25302;DHT22;13243;50.888;4.724;2023-02-28T17:33:57;6.50;99.90
25302;DHT22;13243;50.888;4.724;2023-02-28T17:39:00;6.20;99.90
25302;DHT22;13243;50.888;4.724;2023-02-28T17:44:02;6.10;99.90
25302;DHT22;13243;50.888;4.724;2023-02-28T17:49:04;5.80;99.90
25302;DHT22;13243;50.888;4.724;2023-02-28T17:54:06;5.90;99.90
25302;DHT22;13243;50.888;4.724;2023-02-28T17:59:09;5.50;99.90
25302;DHT22;13243;50.888;4.724;2023-02-28T18:04:12;5.20;99.90
25302;DHT22;13243;50.888;4.724;2023-02-28T18:09:18;5.00;99.90
25302;DHT22;13243;50.888;4.724;2023-02-28T18:14:24;5.00;99.90
25302;DHT22;13243;50.888;4.724;2023-02-28T18:19:27;4.90;99.90
25302;DHT22;13243;50.888;4.724;2023-02-28T18:24:28;4.80;99.90
25302;DHT22;13243;50.888;4.724;2023-02-28T18:29:31;4.80;99.90
25302;DHT22;13243;50.888;4.724;2023-02-28T18:34:34;4.60;99.90
25302;DHT22;13243;50.888;4.724;2023-02-28T18:39:36;4.70;99.90
25302;DHT22;13243;50.888;4.724;2023-02-28T18:44:38;4.50;99.90
25302;DHT22;13243;50.888;4.724;2023-02-28T18:49:40;4.30;99.90
25302;DHT22;13243;50.888;4.724;2023-02-28T18:54:42;4.20;99.90
25302;DHT22;13243;50.888;4.724;2023-02-28T18:59:43;4.20;99.90
25302;DHT22;13243;50.888;4.724;2023-02-28T19:04:45;4.00;99.90
25302;DHT22;13243;50.888;4.724;2023-02-28T19:09:47;3.90;99.90
25302;DHT22;13243;50.888;4.724;2023-02-28T19:14:49;3.70;99.90
25302;DHT22;13243;50.888;4.724;2023-02-28T19:19:52;3.70;99.90
25302;DHT22;13243;50.888;4.724;2023-02-28T19:24:54;3.60;99.90
25302;DHT22;13243;50.888;4.724;2023-02-28T19:29:56;3.40;99.90
25302;DHT22;13243;50.888;4.724;2023-02-28T19:34:59;3.30;99.90
25302;DHT22;13243;50.888;4.724;2023-02-28T19:40:02;3.40;99.90
25302;DHT22;13243;50.888;4.724;2023-02-28T19:45:04;3.60;99.90
25302;DHT22;13243;50.888;4.724;2023-02-28T19:50:08;3.20;99.90
25302;DHT22;13243;50.888;4.724;2023-02-28T19:55:11;3.10;99.90
25302;DHT22;13243;50.888;4.724;2023-02-28T20:00:14;3.10;99.90
25302;DHT22;13243;50.888;4.724;2023-02-28T20:05:17;3.00;99.90
25302;DHT22;13243;50.888;4.724;2023-02-28T20:10:19;3.10;99.90
25302;DHT22;13243;50.888;4.724;2023-02-28T20:15:21;3.00;99.90
25302;DHT22;13243;50.888;4.724;2023-02-28T20:20:23;3.00;99.90
25302;DHT22;13243;50.888;4.724;2023-02-28T20:25:25;3.00;99.90
25302;DHT22;13243;50.888;4.724;2023-02-28T20:30:28;3.00;99.90
25302;DHT22;13243;50.888;4.724;2023-02-28T20:35:30;2.90;99.90
25302;DHT22;13243;50.888;4.724;2023-02-28T20:40:32;2.90;99.90
25302;DHT22;13243;50.888;4.724;2023-02-28T20:45:34;2.80;99.90
25302;DHT22;13243;50.888;4.724;2023-02-28T20:50:36;2.70;99.90
25302;DHT22;13243;50.888;4.724;2023-02-28T20:55:38;2.50;99.90
25302;DHT22;13243;50.888;4.724;2023-02-28T21:00:40;2.50;99.90
25302;DHT22;13243;50.888;4.724;2023-02-28T21:05:42;2.40;99.90
25302;DHT22;13243;50.888;4.724;2023-02-28T21:10:43;2.40;99.90
25302;DHT22;13243;50.888;4.724;2023-02-28T21:15:45;1.90;99.90
25302;DHT22;13243;50.888;4.724;2023-02-28T21:20:47;2.20;99.90
25302;DHT22;13243;50.888;4.724;2023-02-28T21:25:49;2.00;99.90
25302;DHT22;13243;50.888;4.724;2023-02-28T21:30:51;1.80;99.90
25302;DHT22;13243;50.888;4.724;2023-02-28T21:36:00;2.10;99.90
25302;DHT22;13243;50.888;4.724;2023-02-28T21:41:09;2.00;99.90
25302;DHT22;13243;50.888;4.724;2023-02-28T21:46:14;2.20;99.90
25302;DHT22;13243;50.888;4.724;2023-02-28T21:51:22;1.80;99.90
25302;DHT22;13243;50.888;4.724;2023-02-28T21:56:34;1.90;99.90
25302;DHT22;13243;50.888;4.724;2023-02-28T22:01:41;1.80;99.90
25302;DHT22;13243;50.888;4.724;2023-02-28T22:06:52;1.90;99.90
25302;DHT22;13243;50.888;4.724;2023-02-28T22:11:55;2.00;99.90
25302;DHT22;13243;50.888;4.724;2023-02-28T22:16:57;1.90;99.90
25302;DHT22;13243;50.888;4.724;2023-02-28T22:22:00;1.70;99.90
25302;DHT22;13243;50.888;4.724;2023-02-28T22:27:02;1.70;99.90
25302;DHT22;13243;50.888;4.724;2023-02-28T22:32:07;1.80;99.90
25302;DHT22;13243;50.888;4.724;2023-02-28T22:37:10;1.70;99.90
25302;DHT22;13243;50.888;4.724;2023-02-28T22:42:12;1.60;99.90
25302;DHT22;13243;50.888;4.724;2023-02-28T22:47:14;1.70;99.90
25302;DHT22;13243;50.888;4.724;2023-02-28T22:52:16;1.40;99.90
25302;DHT22;13243;50.888;4.724;2023-02-28T22:57:18;1.30;99.90
25302;DHT22;13243;50.888;4.724;2023-02-28T23:02:20;1.30;99.90
25302;DHT22;13243;50.888;4.724;2023-02-28T23:07:23;1.20;99.90
25302;DHT22;13243;50.888;4.724;2023-02-28T23:12:25;1.10;99.90
25302;DHT22;13243;50.888;4.724;2023-02-28T23:17:30;1.20;99.90
25302;DHT22;13243;50.888;4.724;2023-02-28T23:22:32;1.30;99.90
25302;DHT22;13243;50.888;4.724;2023-02-28T23:27:33;1.20;99.90
25302;DHT22;13243;50.888;4.724;2023-02-28T23:32:39;0.90;99.90
25302;DHT22;13243;50.888;4.724;2023-02-28T23:37:41;0.80;99.90
25302;DHT22;13243;50.888;4.724;2023-02-28T23:42:43;0.90;99.90
25302;DHT22;13243;50.888;4.724;2023-02-28T23:47:45;1.10;99.90
25302;DHT22;13243;50.888;4.724;2023-02-28T23:52:47;1.00;99.90
25302;DHT22;13243;50.888;4.724;2023-02-28T23:57:49;1.00;99.90
